Portada
METAR-TAF:

METAR-TAF

Aeroports :

Txengdu, Xina

latitud: 30-40N, longitud: 104-01E, altitud: 508 m

Observació

L'informe es va fer fa 44 minuts, a les 01:00 UTC
Vent 2 kt amb direcció variable
Temperatura 15°C
Humitat 82%
Pressió 1017 hPa
Visibilitat: 2500 m
Núvols disperses a una alçada de 4000 ft
boirina

METAR: ZUUU 270100Z VRB01MPS 2500 BR SCT040 15/12 Q1017 BECMG TL0200 3500

Hora: 09:44 (01:44 UTC)

Pronòstic

L'informe es va fer fa 5 hores i 40 minuts, a les 20:04 UTC
Pronòstic vàlid del 27 a les 00 UTC al 27 a les 24 UTC
Vent 6 kt del Nord/Nord-Est
Visibilitat: 5000 m
Núvols disperses a una alçada de 5000 ft
boirina
Temporalment
l' 27 a les 10 UTC al 27 a les 16 UTC
pluja

TAF: ZUUU 262004Z 2700/2724 02003MPS 5000 BR SCT050 TX17/2707Z TN10/2723Z TEMPO 2710/2716 -RA

Observacions i pronòstics meteorològics de més de 4000 aeroports (METAR i TAF).

Les estacions disponibles són els punts grocs i vermells al mapa.

Posi el ratolí al punt desitjat per veure el nom de l'estació.

Feu clic per veure les observacions i els pronòstics meteorològics.

Per canviar el mapa: feu clic els botons verds amb una creu de color negre per apropar; al botó verd amb un guió per allunyar la imatge; o en les fletxes verdes per a mapes adjacents.


METAR-TAF: